createdAt,value
2023-04-24T00:01:11.929Z,0.00
2023-04-24T00:06:11.923Z,0.00
2023-04-24T00:11:11.803Z,0.00
2023-04-24T00:16:11.813Z,0.00
2023-04-24T00:21:11.676Z,0.00
2023-04-24T00:26:11.815Z,0.00
2023-04-24T00:31:11.528Z,0.00
2023-04-24T00:36:11.559Z,0.00
2023-04-24T00:41:11.499Z,0.00
2023-04-24T00:46:11.396Z,0.00
2023-04-24T00:51:11.632Z,0.00
2023-04-24T00:56:14.741Z,0.00
2023-04-24T01:01:11.171Z,0.00
2023-04-24T01:06:11.246Z,0.00
2023-04-24T01:11:11.034Z,0.00
2023-04-24T01:16:11.053Z,0.00
2023-04-24T01:21:10.928Z,0.00
2023-04-24T01:26:10.888Z,0.00
2023-04-24T01:31:10.853Z,0.00
2023-04-24T01:36:10.806Z,0.00
2023-04-24T01:41:10.643Z,0.00
2023-04-24T01:46:10.696Z,0.00
2023-04-24T01:51:10.520Z,0.00
2023-04-24T01:56:13.627Z,0.00
2023-04-24T02:01:10.463Z,0.00
2023-04-24T02:06:10.926Z,0.00
2023-04-24T02:11:10.261Z,0.00
2023-04-24T02:16:10.366Z,0.00
2023-04-24T02:21:10.116Z,0.00
2023-04-24T02:26:10.220Z,0.00
2023-04-24T02:31:09.979Z,0.00
2023-04-24T02:36:10.016Z,0.00
2023-04-24T02:41:09.863Z,0.00
2023-04-24T02:46:09.925Z,0.00
2023-04-24T02:51:09.755Z,0.00
2023-04-24T02:56:12.747Z,0.00
2023-04-24T03:01:09.622Z,0.00
2023-04-24T03:06:09.591Z,0.00
2023-04-24T03:11:09.535Z,0.00
2023-04-24T03:16:09.602Z,0.00
2023-04-24T03:21:09.383Z,0.00
2023-04-24T03:26:09.461Z,0.00
2023-04-24T03:31:09.329Z,0.00
2023-04-24T03:36:09.680Z,0.00
2023-04-24T03:41:09.162Z,0.00
2023-04-24T03:46:09.186Z,0.00
2023-04-24T03:51:09.080Z,0.00
2023-04-24T03:56:12.074Z,0.00
2023-04-24T04:01:08.880Z,5.62
2023-04-24T04:06:08.975Z,11.25
2023-04-24T04:11:08.777Z,16.88
2023-04-24T04:16:08.733Z,28.12
2023-04-24T04:21:09.546Z,45.00
2023-04-24T04:26:08.766Z,56.25
2023-04-24T04:31:08.644Z,61.88
2023-04-24T04:36:08.400Z,73.12
2023-04-24T04:41:08.452Z,95.62
2023-04-24T04:46:08.327Z,106.88
2023-04-24T04:51:08.244Z,101.25
2023-04-24T04:56:11.257Z,106.88
2023-04-24T05:01:08.158Z,146.25
2023-04-24T05:06:08.346Z,191.25
2023-04-24T05:11:08.217Z,157.50
2023-04-24T05:16:08.028Z,118.12
2023-04-24T05:21:07.808Z,202.50
2023-04-24T05:26:08.125Z,202.50
2023-04-24T05:31:15.257Z,281.25
2023-04-24T05:36:07.654Z,292.50
2023-04-24T05:41:07.591Z,281.25
2023-04-24T05:46:07.543Z,219.38
2023-04-24T05:51:07.431Z,225.00
2023-04-24T05:56:10.563Z,360.00
2023-04-24T06:01:07.351Z,669.38
2023-04-24T06:06:07.247Z,635.62
2023-04-24T06:11:07.127Z,320.62
2023-04-24T06:16:07.154Z,196.88
2023-04-24T06:21:07.001Z,303.75
2023-04-24T06:26:07.352Z,517.50
2023-04-24T06:31:07.051Z,596.25
2023-04-24T06:36:07.002Z,714.38
2023-04-24T06:41:06.747Z,523.12
2023-04-24T06:46:06.731Z,590.62
2023-04-24T06:51:06.688Z,720.00
2023-04-24T06:56:09.561Z,556.88
2023-04-24T07:01:06.667Z,534.38
2023-04-24T07:06:06.569Z,540.00
2023-04-24T07:11:06.422Z,573.75
2023-04-24T07:16:06.726Z,635.62
2023-04-24T07:21:06.248Z,618.75
2023-04-24T07:26:06.211Z,731.25
2023-04-24T07:31:06.104Z,905.62
2023-04-24T07:36:06.509Z,1035.00
2023-04-24T07:41:06.017Z,911.25
2023-04-24T07:46:08.403Z,905.62
2023-04-24T07:51:05.806Z,1310.62
2023-04-24T07:56:08.980Z,635.62
2023-04-24T08:01:05.707Z,393.75
2023-04-24T08:06:05.716Z,438.75
2023-04-24T08:11:05.729Z,748.12
2023-04-24T08:16:05.664Z,658.12
2023-04-24T08:21:05.465Z,720.00
2023-04-24T08:26:05.415Z,815.62
2023-04-24T08:31:05.272Z,1035.00
2023-04-24T08:36:05.278Z,838.12
2023-04-24T08:41:05.257Z,877.50
2023-04-24T08:46:09.118Z,990.00
2023-04-24T08:51:06.086Z,770.62
2023-04-24T08:56:08.134Z,950.62
2023-04-24T09:01:04.985Z,928.12
2023-04-24T09:06:04.914Z,900.00
2023-04-24T09:11:04.898Z,905.62
2023-04-24T09:16:04.785Z,855.00
2023-04-24T09:21:04.760Z,928.12
2023-04-24T09:26:04.752Z,900.00
2023-04-24T09:31:04.571Z,815.62
2023-04-24T09:36:04.523Z,523.12
2023-04-24T09:41:04.390Z,551.25
2023-04-24T09:46:04.624Z,511.88
2023-04-24T09:51:04.247Z,613.12
2023-04-24T09:56:07.950Z,720.00
2023-04-24T10:01:04.186Z,905.62
2023-04-24T10:06:04.183Z,860.62
2023-04-24T10:11:03.988Z,849.38
2023-04-24T10:16:03.983Z,748.12
2023-04-24T10:21:03.900Z,669.38
2023-04-24T10:26:11.649Z,652.50
2023-04-24T10:31:03.941Z,798.75
2023-04-24T10:36:03.772Z,770.62
2023-04-24T10:41:03.603Z,590.62
2023-04-24T10:46:03.790Z,635.62
2023-04-24T10:51:03.460Z,708.75
2023-04-24T10:56:06.477Z,540.00
2023-04-24T11:01:03.417Z,348.75
2023-04-24T11:06:03.466Z,286.88
2023-04-24T11:11:03.378Z,416.25
2023-04-24T11:16:03.267Z,748.12
2023-04-24T11:21:03.206Z,607.50
2023-04-24T11:26:03.116Z,455.62
2023-04-24T11:31:02.925Z,573.75
2023-04-24T11:36:02.987Z,579.38
2023-04-24T11:41:02.828Z,646.88
2023-04-24T11:46:03.397Z,455.62
2023-04-24T11:51:02.670Z,551.25
2023-04-24T11:56:05.674Z,489.38
2023-04-24T12:01:02.615Z,646.88
2023-04-24T12:06:02.757Z,838.12
2023-04-24T12:11:02.555Z,838.12
2023-04-24T12:16:02.477Z,556.88
2023-04-24T12:21:02.317Z,523.12
2023-04-24T12:26:02.242Z,663.75
2023-04-24T12:31:02.142Z,568.12
2023-04-24T12:36:02.385Z,613.12
2023-04-24T12:41:02.105Z,540.00
2023-04-24T12:46:01.959Z,281.25
2023-04-24T12:51:01.906Z,686.25
2023-04-24T12:56:12.747Z,787.50
2023-04-24T13:01:01.780Z,776.25
2023-04-24T13:06:01.836Z,871.88
2023-04-24T13:11:01.682Z,466.88
2023-04-24T13:16:02.120Z,742.50
2023-04-24T13:21:01.528Z,590.62
2023-04-24T13:26:01.559Z,568.12
2023-04-24T13:31:01.456Z,455.62
2023-04-24T13:36:01.336Z,421.88
2023-04-24T13:41:01.206Z,225.00
2023-04-24T13:46:01.238Z,180.00
2023-04-24T13:51:01.235Z,326.25
2023-04-24T13:56:04.062Z,624.38
2023-04-24T14:01:00.979Z,331.88
2023-04-24T14:06:00.938Z,337.50
2023-04-24T14:11:02.018Z,421.88
2023-04-24T14:16:00.851Z,635.62
2023-04-24T14:21:00.925Z,579.38
2023-04-24T14:26:01.153Z,652.50
2023-04-24T14:31:08.855Z,444.38
2023-04-24T14:36:00.516Z,427.50
2023-04-24T14:48:28.902Z,500.62
2023-04-24T14:54:56.991Z,343.12
2023-04-24T14:59:56.683Z,455.62
2023-04-24T15:04:56.872Z,337.50
2023-04-24T15:09:56.691Z,601.88
2023-04-24T15:14:56.414Z,247.50
2023-04-24T15:19:56.405Z,511.88
2023-04-24T15:26:14.008Z,607.50
2023-04-24T15:31:13.900Z,219.38
2023-04-24T15:36:14.062Z,281.25
2023-04-24T15:41:13.665Z,241.88
2023-04-24T15:46:13.745Z,298.12
2023-04-24T15:51:13.563Z,208.12
2023-04-24T15:56:13.588Z,196.88
2023-04-24T16:01:13.418Z,196.88
2023-04-24T16:06:13.300Z,191.25
2023-04-24T16:11:13.201Z,191.25
2023-04-24T16:16:16.431Z,191.25
2023-04-24T16:21:13.549Z,247.50
2023-04-24T16:26:13.078Z,337.50
2023-04-24T16:31:20.675Z,331.88
2023-04-24T16:36:12.992Z,292.50
2023-04-24T16:41:13.095Z,258.75
2023-04-24T16:46:12.989Z,191.25
2023-04-24T16:51:12.701Z,180.00
2023-04-24T16:56:12.819Z,140.62
2023-04-24T17:01:12.682Z,123.75
2023-04-24T17:06:12.649Z,101.25
2023-04-24T17:11:12.418Z,135.00
2023-04-24T17:16:15.525Z,129.38
2023-04-24T17:21:12.392Z,112.50
2023-04-24T17:26:12.464Z,129.38
2023-04-24T17:31:12.134Z,106.88
2023-04-24T17:38:33.511Z,73.12
2023-04-24T17:43:41.372Z,78.75
2023-04-24T17:48:40.793Z,73.12
2023-04-24T17:53:33.236Z,73.12
2023-04-24T17:58:33.062Z,56.25
2023-04-24T18:03:33.280Z,45.00
2023-04-24T18:08:33.219Z,33.75
2023-04-24T18:13:32.946Z,22.50
2023-04-24T18:18:32.782Z,11.25
2023-04-24T18:23:33.040Z,5.62
2023-04-24T18:28:36.155Z,0.00
2023-04-24T18:33:32.651Z,0.00
2023-04-24T18:38:32.690Z,0.00
2023-04-24T18:43:32.463Z,0.00
2023-04-24T18:48:32.559Z,0.00
2023-04-24T18:53:32.329Z,0.00
2023-04-24T18:58:32.367Z,0.00
2023-04-24T19:03:32.364Z,0.00
2023-04-24T19:08:32.221Z,0.00
2023-04-24T19:13:32.122Z,0.00
2023-04-24T19:18:32.064Z,0.00
2023-04-24T19:23:31.969Z,0.00
2023-04-24T19:28:35.671Z,0.00
2023-04-24T19:33:31.915Z,0.00
2023-04-24T19:38:31.816Z,0.00
2023-04-24T19:43:31.735Z,0.00
2023-04-24T19:48:31.716Z,0.00
2023-04-24T19:53:31.614Z,0.00
2023-04-24T19:58:31.703Z,0.00
2023-04-24T20:03:34.060Z,0.00
2023-04-24T20:08:31.583Z,0.00
2023-04-24T20:13:31.316Z,0.00
2023-04-24T20:18:31.319Z,0.00
2023-04-24T20:23:31.293Z,0.00
2023-04-24T20:28:34.195Z,0.00
2023-04-24T20:33:31.074Z,0.00
2023-04-24T20:38:31.088Z,0.00
2023-04-24T20:43:31.014Z,0.00
2023-04-24T20:48:31.032Z,0.00
2023-04-24T20:53:30.799Z,0.00
2023-04-24T20:58:30.781Z,0.00
2023-04-24T21:03:30.836Z,0.00
2023-04-24T21:08:30.646Z,0.00
2023-04-24T21:13:30.601Z,0.00
2023-04-24T21:18:30.508Z,0.00
2023-04-24T21:23:30.455Z,0.00
2023-04-24T21:28:33.424Z,0.00
2023-04-24T21:33:30.296Z,0.00
2023-04-24T21:38:30.345Z,0.00
2023-04-24T21:43:43.521Z,0.00
2023-04-24T21:48:31.156Z,0.00
2023-04-24T21:53:30.051Z,0.00
2023-04-24T21:58:29.991Z,0.00
2023-04-24T22:03:30.197Z,0.00
2023-04-24T22:08:30.553Z,0.00
2023-04-24T22:13:29.981Z,0.00
2023-04-24T22:18:40.083Z,0.00
2023-04-24T22:23:30.643Z,0.00
2023-04-24T22:28:32.610Z,0.00
2023-04-24T22:33:29.527Z,0.00
2023-04-24T22:38:29.472Z,0.00
2023-04-24T22:43:29.332Z,0.00
2023-04-24T22:48:29.369Z,0.00
2023-04-24T22:53:29.276Z,0.00
2023-04-24T22:58:29.284Z,0.00
2023-04-24T23:03:29.383Z,0.00
2023-04-24T23:08:36.990Z,0.00
2023-04-24T23:13:29.143Z,0.00
2023-04-24T23:18:29.068Z,0.00
2023-04-24T23:23:28.820Z,0.00
2023-04-24T23:28:31.813Z,0.00
2023-04-24T23:33:28.689Z,0.00
2023-04-24T23:38:36.618Z,0.00
2023-04-24T23:43:29.602Z,0.00
2023-04-24T23:48:28.572Z,0.00
2023-04-24T23:53:28.476Z,0.00
2023-04-24T23:58:28.367Z,0.00
